Time;durP1;ratioP1;P1;durP2;ratioP2;P2;SDS_P1;SDS_P2;PMS_P1;PMS_P2;Temp;Humidity;BMP_temperature;BMP_pressure;BME280_temperature;BME280_humidity;BME280_pressure;Samples;Min_cycle;Max_cycle;Signal;HPM_P1;HPM_P2
2024/02/14 00:00:37;;;;;;;126.40;88.80;;;;;;;0.77;100.00;99482.66;109409;1252;59786;-76
2024/02/14 00:03:24;;;;;;;131.90;86.10;;;;;;;0.74;100.00;99482.89;109387;1254;65696;-76
2024/02/14 00:05:52;;;;;;;134.60;90.00;;;;;;;0.69;100.00;99484.20;109402;1253;58980;-75
2024/02/14 00:08:18;;;;;;;131.50;90.40;;;;;;;0.67;100.00;99487.92;109484;1254;59546;-75
2024/02/14 00:10:45;;;;;;;132.10;88.30;;;;;;;0.65;100.00;99489.34;109509;1254;66092;-74
2024/02/14 00:13:11;;;;;;;136.00;94.50;;;;;;;0.65;100.00;99490.91;109513;1255;59009;-75
2024/02/14 00:15:38;;;;;;;140.40;91.20;;;;;;;0.65;100.00;99495.80;109493;1255;65057;-75
2024/02/14 00:18:05;;;;;;;135.00;92.10;;;;;;;0.67;100.00;99497.18;109516;1252;58997;-75
2024/02/14 00:20:32;;;;;;;124.40;87.90;;;;;;;0.68;100.00;99496.29;109451;1254;59059;-75
2024/02/14 00:22:59;;;;;;;132.80;89.80;;;;;;;0.68;100.00;99495.41;109408;1253;64851;-75
2024/02/14 00:25:25;;;;;;;126.80;87.10;;;;;;;0.68;100.00;99493.66;109399;1256;60044;-76
2024/02/14 00:27:54;;;;;;;127.80;86.40;;;;;;;0.68;100.00;99495.59;109415;1253;63743;-76
2024/02/14 00:30:22;;;;;;;126.30;86.10;;;;;;;0.69;100.00;99491.56;109441;1252;59078;-75
2024/02/14 00:32:50;;;;;;;137.40;89.80;;;;;;;0.70;100.00;99493.45;109420;1253;58867;-75
2024/02/14 00:35:16;;;;;;;132.40;90.50;;;;;;;0.72;100.00;99495.35;109440;1254;67236;-75
2024/02/14 00:37:43;;;;;;;131.70;89.40;;;;;;;0.72;100.00;99498.33;109493;1255;61007;-75
2024/02/14 00:40:11;;;;;;;133.40;93.60;;;;;;;0.71;100.00;99497.11;109456;1253;65118;-75
2024/02/14 00:42:37;;;;;;;139.10;91.50;;;;;;;0.73;100.00;99498.81;109414;1253;59019;-76
2024/02/14 00:45:09;;;;;;;132.70;93.10;;;;;;;0.74;100.00;99500.54;109416;1252;59371;-75
2024/02/14 00:47:36;;;;;;;146.30;96.80;;;;;;;0.75;100.00;99500.36;109418;1253;65740;-75
2024/02/14 00:50:03;;;;;;;146.40;98.10;;;;;;;0.77;100.00;99498.76;109426;1256;59882;-75
2024/02/14 00:52:30;;;;;;;137.40;95.80;;;;;;;0.79;100.00;99498.02;109477;1253;64997;-75
2024/02/14 00:54:57;;;;;;;144.90;96.60;;;;;;;0.80;100.00;99498.51;109384;1254;58975;-75
2024/02/14 00:57:26;;;;;;;135.80;93.00;;;;;;;0.81;100.00;99504.78;109428;1254;58946;-75
2024/02/14 00:59:55;;;;;;;160.20;108.80;;;;;;;0.80;100.00;99508.81;109449;1254;67073;-75
2024/02/14 01:02:21;;;;;;;146.10;99.90;;;;;;;0.82;100.00;99508.25;109443;1254;61247;-75
2024/02/14 01:04:48;;;;;;;151.40;102.60;;;;;;;0.84;100.00;99504.73;109415;1254;64167;-75
2024/02/14 01:07:15;;;;;;;149.00;101.60;;;;;;;0.85;100.00;99503.13;109355;1253;58951;-75
2024/02/14 01:09:41;;;;;;;159.70;107.10;;;;;;;0.86;100.00;99499.09;109444;1253;58983;-76
2024/02/14 01:12:08;;;;;;;172.90;116.50;;;;;;;0.89;100.00;99497.46;109425;1252;67141;-76
2024/02/14 01:14:34;;;;;;;160.20;111.30;;;;;;;0.93;100.00;99497.90;109376;1254;60022;-75
2024/02/14 01:17:01;;;;;;;161.60;108.80;;;;;;;0.94;100.00;99499.10;109424;1253;65062;-75
2024/02/14 01:19:28;;;;;;;165.30;109.20;;;;;;;0.95;100.00;99498.55;109389;1254;59110;-76
2024/02/14 01:21:56;;;;;;;157.00;104.60;;;;;;;0.97;100.00;99497.66;109390;1254;60032;-75
2024/02/14 01:24:26;;;;;;;159.40;106.80;;;;;;;0.96;100.00;99495.73;109426;1254;67216;-75
2024/02/14 01:26:54;;;;;;;154.70;102.90;;;;;;;0.97;100.00;99493.27;109384;1253;61181;-74
2024/02/14 01:29:22;;;;;;;156.40;104.80;;;;;;;0.97;100.00;99486.80;109401;1254;64880;-76
2024/02/14 01:31:50;;;;;;;152.20;104.90;;;;;;;0.97;100.00;99483.81;109407;1254;59166;-76
2024/02/14 01:34:17;;;;;;;156.20;105.90;;;;;;;0.96;100.00;99487.17;109427;1253;59831;-76
2024/02/14 01:36:44;;;;;;;149.10;104.20;;;;;;;0.94;100.00;99485.46;109147;1254;66043;-75
2024/02/14 01:39:11;;;;;;;161.80;106.20;;;;;;;0.94;100.00;99483.20;109394;1254;60049;-74
2024/02/14 01:41:38;;;;;;;155.40;105.70;;;;;;;0.93;100.00;99482.87;109441;1253;65056;-75
2024/02/14 01:44:05;;;;;;;153.70;105.50;;;;;;;0.95;100.00;99488.08;109378;1253;58964;-75
2024/02/14 01:46:31;;;;;;;151.20;102.10;;;;;;;0.96;100.00;99490.66;109437;1253;59232;-76
2024/02/14 01:48:58;;;;;;;163.80;106.30;;;;;;;0.97;100.00;99487.14;109412;1254;67270;-76
2024/02/14 01:51:25;;;;;;;157.60;105.10;;;;;;;0.96;100.00;99487.34;109427;1253;60271;-75
2024/02/14 01:53:54;;;;;;;150.40;103.50;;;;;;;0.97;100.00;99485.41;109398;1253;65050;-76
2024/02/14 01:56:20;;;;;;;145.10;101.80;;;;;;;0.98;100.00;99485.04;109408;1253;59032;-75
2024/02/14 01:58:47;;;;;;;148.00;101.10;;;;;;;0.96;100.00;99482.44;109402;1252;59264;-75
2024/02/14 02:01:14;;;;;;;148.60;99.00;;;;;;;0.94;100.00;99486.33;109386;1254;67016;-75
2024/02/14 02:03:41;;;;;;;140.10;96.60;;;;;;;0.92;100.00;99486.55;109384;1253;60312;-76
2024/02/14 02:06:09;;;;;;;142.70;96.70;;;;;;;0.91;100.00;99487.80;109345;1253;64383;-76
2024/02/14 02:08:36;;;;;;;134.30;92.10;;;;;;;0.91;100.00;99487.98;109366;1252;59046;-75
2024/02/14 02:11:03;;;;;;;144.50;95.90;;;;;;;0.90;100.00;99483.98;109388;1252;58935;-76
2024/02/14 02:13:29;;;;;;;141.00;96.10;;;;;;;0.89;100.00;99487.14;109403;1254;67020;-75
2024/02/14 02:15:56;;;;;;;148.70;97.90;;;;;;;0.88;100.00;99485.76;109427;1253;60301;-75
2024/02/14 02:18:25;;;;;;;152.50;99.90;;;;;;;0.90;100.00;99482.23;109378;1253;64001;-75
2024/02/14 02:20:52;;;;;;;144.40;96.90;;;;;;;0.90;100.00;99485.54;109385;1252;59827;-77
2024/02/14 02:23:18;;;;;;;151.70;100.60;;;;;;;0.87;100.00;99488.92;109378;1254;58954;-76
2024/02/14 02:25:45;;;;;;;150.20;102.50;;;;;;;0.85;100.00;99490.19;109407;1253;67063;-75
2024/02/14 02:28:12;;;;;;;136.00;95.40;;;;;;;0.84;100.00;99488.29;109429;1253;60112;-75
2024/02/14 02:30:39;;;;;;;141.70;97.40;;;;;;;0.83;100.00;99489.34;109457;1253;64996;-76
2024/02/14 02:33:07;;;;;;;147.90;98.50;;;;;;;0.83;100.00;99487.43;109354;1253;58955;-75
2024/02/14 02:35:34;;;;;;;142.10;96.70;;;;;;;0.81;100.00;99486.59;109480;1253;59198;-74
2024/02/14 02:38:01;;;;;;;152.20;97.30;;;;;;;0.78;100.00;99489.10;109418;1254;66095;-75
2024/02/14 02:40:28;;;;;;;141.20;100.30;;;;;;;0.75;100.00;99494.76;109246;1254;61069;-74
2024/02/14 02:42:54;;;;;;;143.60;97.50;;;;;;;0.72;100.00;99496.54;109400;1252;65075;-75
2024/02/14 02:45:21;;;;;;;145.80;98.50;;;;;;;0.71;100.00;99498.52;109395;1253;59311;-74
2024/02/14 02:47:51;;;;;;;142.90;97.50;;;;;;;0.69;100.00;99501.69;109141;1253;59370;-75
2024/02/14 02:50:19;;;;;;;147.90;97.60;;;;;;;0.68;100.00;99503.27;109410;1252;67081;-75
2024/02/14 02:52:46;;;;;;;143.90;97.50;;;;;;;0.69;100.00;99503.63;109297;1254;60051;-75
2024/02/14 02:55:12;;;;;;;134.90;92.90;;;;;;;0.69;100.00;99498.91;109408;1253;63979;-75
2024/02/14 02:57:41;;;;;;;141.00;95.40;;;;;;;0.67;100.00;99503.13;109361;1253;59011;-76
2024/02/14 03:00:35;;;;;;;143.60;96.20;;;;;;;0.67;100.00;99509.06;109427;1253;59237;-75
2024/02/14 03:03:04;;;;;;;140.20;94.60;;;;;;;0.67;100.00;99509.95;109385;1253;67130;-75
2024/02/14 03:05:33;;;;;;;139.10;95.30;;;;;;;0.67;100.00;99507.66;109160;1253;60469;-74
2024/02/14 03:08:00;;;;;;;146.50;97.00;;;;;;;0.69;100.00;99508.70;109396;1252;65113;-74
2024/02/14 03:10:28;;;;;;;134.00;92.00;;;;;;;0.70;100.00;99506.40;109085;1252;59035;-76
2024/02/14 03:12:55;;;;;;;145.40;98.60;;;;;;;0.68;100.00;99507.83;109439;1252;59025;-76
2024/02/14 03:15:25;;;;;;;142.10;97.00;;;;;;;0.68;100.00;99507.13;109395;1252;66995;-75
2024/02/14 03:17:51;;;;;;;139.20;93.50;;;;;;;0.70;100.00;99510.61;109381;1253;61169;-74
2024/02/14 03:20:19;;;;;;;142.90;95.80;;;;;;;0.69;100.00;99515.16;109353;1253;65111;-76
2024/02/14 03:22:47;;;;;;;135.00;94.90;;;;;;;0.69;100.00;99516.57;109367;1252;59107;-74
2024/02/14 03:25:16;;;;;;;142.20;94.50;;;;;;;0.72;100.00;99521.59;109401;1252;58907;-75
2024/02/14 03:27:52;;;;;;;144.90;101.80;;;;;;;0.74;100.00;99518.02;109373;1252;66001;-74
2024/02/14 03:30:20;;;;;;;148.00;100.80;;;;;;;0.77;100.00;99517.81;109419;1252;59987;-75
2024/02/14 03:32:47;;;;;;;149.10;104.20;;;;;;;0.78;100.00;99514.98;109392;1253;64737;-75
2024/02/14 03:35:13;;;;;;;155.60;105.90;;;;;;;0.81;100.00;99515.11;109249;1252;59008;-75
2024/02/14 03:37:47;;;;;;;143.40;102.90;;;;;;;0.84;100.00;99516.10;109417;1253;58841;-76
2024/02/14 03:40:14;;;;;;;142.00;99.60;;;;;;;0.85;100.00;99514.67;109375;1253;66089;-77
2024/02/14 03:42:40;;;;;;;146.40;101.00;;;;;;;0.85;100.00;99518.52;109399;1252;59971;-76
2024/02/14 03:45:08;;;;;;;142.10;101.10;;;;;;;0.85;100.00;99522.03;109371;1252;65367;-76
2024/02/14 03:47:35;;;;;;;137.80;100.30;;;;;;;0.85;100.00;99523.42;109372;1252;58982;-75
2024/02/14 03:50:04;;;;;;;130.70;93.10;;;;;;;0.84;100.00;99519.95;109405;1252;59040;-76
2024/02/14 03:52:34;;;;;;;134.50;98.00;;;;;;;0.86;100.00;99516.92;109412;1252;67018;-76
2024/02/14 03:55:01;;;;;;;135.10;95.00;;;;;;;0.87;100.00;99518.84;109384;1252;60215;-76
2024/02/14 03:57:33;;;;;;;138.30;96.70;;;;;;;0.84;100.00;99518.56;109369;1252;65022;-75
2024/02/14 04:00:03;;;;;;;138.00;95.30;;;;;;;0.79;100.00;99520.58;109377;1252;58972;-75
2024/02/14 04:02:31;;;;;;;128.80;93.00;;;;;;;0.74;100.00;99525.04;109253;1252;59372;-74
2024/02/14 04:04:58;;;;;;;134.60;95.50;;;;;;;0.68;100.00;99532.14;109121;1253;64812;-75
2024/02/14 04:07:24;;;;;;;130.30;91.20;;;;;;;0.63;100.00;99536.41;109425;1252;60279;-75
2024/02/14 04:09:51;;;;;;;132.10;92.20;;;;;;;0.61;100.00;99538.73;109381;1252;63851;-77
2024/02/14 04:12:17;;;;;;;132.70;93.60;;;;;;;0.58;100.00;99540.00;109392;1252;59006;-75
2024/02/14 04:14:44;;;;;;;123.10;88.90;;;;;;;0.55;100.00;99538.49;109405;1252;58945;-75
2024/02/14 04:17:12;;;;;;;132.60;93.00;;;;;;;0.49;100.00;99536.84;109420;1252;66041;-75
2024/02/14 04:19:39;;;;;;;133.70;92.90;;;;;;;0.47;100.00;99533.04;109401;1252;59067;-75
2024/02/14 04:22:07;;;;;;;129.30;92.40;;;;;;;0.46;100.00;99531.83;109381;1252;64000;-75
2024/02/14 04:24:34;;;;;;;128.00;92.50;;;;;;;0.43;100.00;99534.67;109379;1252;58929;-76
2024/02/14 04:27:04;;;;;;;130.60;92.10;;;;;;;0.40;100.00;99537.17;109366;1253;58962;-75
2024/02/14 04:29:32;;;;;;;131.10;96.20;;;;;;;0.34;100.00;99541.64;109425;1252;66149;-76
2024/02/14 04:31:59;;;;;;;132.20;95.90;;;;;;;0.28;100.00;99546.13;109415;1252;60326;-75
2024/02/14 04:34:26;;;;;;;148.00;98.20;;;;;;;0.20;100.00;99547.11;109413;1252;64148;-76
2024/02/14 04:36:53;;;;;;;138.30;95.70;;;;;;;0.14;100.00;99545.80;109360;1252;59033;-74
2024/02/14 04:39:20;;;;;;;140.60;97.30;;;;;;;0.08;100.00;99549.05;109414;1252;59062;-76
2024/02/14 04:41:46;;;;;;;138.20;95.40;;;;;;;0.03;100.00;99547.73;109429;1252;65853;-75
2024/02/14 04:44:13;;;;;;;132.10;92.40;;;;;;;-0.04;100.00;99552.20;109313;1254;61132;-76
2024/02/14 04:46:43;;;;;;;124.00;89.70;;;;;;;-0.11;100.00;99556.52;109362;1252;64152;-74
2024/02/14 04:49:10;;;;;;;;;;;;;;;-0.22;100.00;99558.73;109402;1252;59014;-75
2024/02/14 04:51:38;;;;;;;145.00;100.20;;;;;;;-0.30;100.00;99560.77;109378;1252;59073;-75
2024/02/14 04:54:05;;;;;;;144.20;101.10;;;;;;;-0.31;100.00;99565.34;109401;1253;65758;-76
2024/02/14 04:56:32;;;;;;;148.70;105.90;;;;;;;-0.34;100.00;99566.95;109412;1252;61067;-76
2024/02/14 04:58:59;;;;;;;139.70;102.60;;;;;;;-0.36;100.00;99563.15;109351;1252;73842;-75
2024/02/14 05:01:26;;;;;;;145.70;102.10;;;;;;;-0.39;100.00;99564.74;109408;1252;59004;-75
2024/02/14 05:03:53;;;;;;;142.50;101.10;;;;;;;-0.44;100.00;99563.07;109499;1252;59048;-76
2024/02/14 05:06:19;;;;;;;138.40;99.60;;;;;;;-0.48;100.00;99563.98;109457;1252;66972;-76
2024/02/14 05:08:46;;;;;;;146.60;102.80;;;;;;;-0.51;100.00;99569.10;109197;1252;60033;-76
2024/02/14 05:11:12;;;;;;;143.40;100.30;;;;;;;-0.56;100.00;99569.16;109401;1252;64450;-74
2024/02/14 05:13:41;;;;;;;147.10;102.40;;;;;;;-0.59;100.00;99571.10;109361;1252;59826;-75
2024/02/14 05:16:10;;;;;;;149.00;102.30;;;;;;;-0.58;100.00;99571.80;109323;1252;59965;-75
2024/02/14 05:18:38;;;;;;;139.20;98.50;;;;;;;-0.58;100.00;99570.23;109465;1252;65888;-75
2024/02/14 05:21:08;;;;;;;143.50;100.10;;;;;;;-0.61;100.00;99569.40;109531;1252;60129;-75
2024/02/14 05:23:35;;;;;;;;;;;;;;;-0.67;100.00;99566.84;109487;1252;64096;-73
2024/02/14 05:26:03;;;;;;;140.30;96.30;;;;;;;-0.73;100.00;99562.91;109460;1254;58952;-75
2024/02/14 05:28:30;;;;;;;139.30;93.00;;;;;;;-0.79;100.00;99563.69;109229;1252;59086;-75
2024/02/14 05:30:59;;;;;;;136.80;97.20;;;;;;;-0.83;100.00;99563.04;109419;1252;67070;-75
2024/02/14 05:33:26;;;;;;;133.10;94.10;;;;;;;-0.85;100.00;99565.85;109346;1252;60783;-75
2024/02/14 05:35:53;;;;;;;132.10;93.00;;;;;;;-0.90;100.00;99566.60;109398;1252;65316;-75
2024/02/14 05:38:20;;;;;;;131.80;93.30;;;;;;;-0.98;100.00;99567.57;109373;1252;59685;-75
2024/02/14 05:40:49;;;;;;;132.30;93.00;;;;;;;-1.04;100.00;99563.80;109380;1252;58922;-75
2024/02/14 05:43:18;;;;;;;135.50;91.40;;;;;;;-1.09;100.00;99565.41;109323;1255;67065;-75
2024/02/14 05:45:44;;;;;;;130.10;91.30;;;;;;;-1.13;100.00;99566.15;109320;1252;61447;-75
2024/02/14 05:48:11;;;;;;;128.30;92.00;;;;;;;-1.15;100.00;99564.43;109367;1252;73855;-74
2024/02/14 05:50:38;;;;;;;137.60;92.70;;;;;;;-1.16;100.00;99567.05;109099;1252;59039;-75
2024/02/14 05:53:04;;;;;;;126.60;91.80;;;;;;;-1.19;100.00;99569.89;109387;1252;59052;-75
2024/02/14 05:55:32;;;;;;;132.40;95.10;;;;;;;-1.21;100.00;99571.81;109389;1254;66978;-76
2024/02/14 05:57:59;;;;;;;131.90;94.00;;;;;;;-1.23;100.00;99569.23;109398;1252;61061;-75
2024/02/14 06:00:26;;;;;;;131.10;94.00;;;;;;;-1.24;100.00;99571.85;109378;1252;65092;-75
2024/02/14 06:02:53;;;;;;;129.50;90.30;;;;;;;-1.25;100.00;99568.89;109386;1252;58997;-76
2024/02/14 06:05:20;;;;;;;132.30;93.90;;;;;;;-1.25;100.00;99568.55;109378;1252;59049;-75
2024/02/14 06:07:47;;;;;;;139.50;100.90;;;;;;;-1.24;100.00;99567.66;109381;1252;66772;-76
2024/02/14 06:10:13;;;;;;;139.60;100.20;;;;;;;-1.23;100.00;99572.36;109325;1252;60079;-74
2024/02/14 06:12:41;;;;;;;147.40;100.60;;;;;;;-1.22;100.00;99571.46;109366;1252;64806;-76
2024/02/14 06:15:07;;;;;;;149.70;106.70;;;;;;;-1.19;100.00;99575.27;109353;1252;59083;-75
2024/02/14 06:17:34;;;;;;;140.00;99.00;;;;;;;-1.14;100.00;99580.46;109102;1252;59214;-75
2024/02/14 06:20:07;;;;;;;144.30;102.70;;;;;;;-1.09;100.00;99581.98;109368;1252;66736;-75
2024/02/14 06:22:33;;;;;;;140.60;103.10;;;;;;;-1.04;100.00;99581.74;109367;1252;61074;-75
2024/02/14 06:25:00;;;;;;;136.20;99.70;;;;;;;-0.99;100.00;99583.45;109347;1252;63981;-75
2024/02/14 06:27:28;;;;;;;151.70;108.60;;;;;;;-0.96;100.00;99589.86;109162;1252;59013;-75
2024/02/14 06:29:55;;;;;;;148.40;105.40;;;;;;;-0.92;100.00;99593.13;109417;1252;59065;-75
2024/02/14 06:32:22;;;;;;;150.60;112.80;;;;;;;-0.86;100.00;99595.33;109393;1252;65905;-76
2024/02/14 06:34:48;;;;;;;144.40;107.30;;;;;;;-0.80;100.00;99596.48;109400;1252;61012;-76
2024/02/14 06:37:15;;;;;;;136.20;99.20;;;;;;;-0.74;100.00;99598.16;109368;1252;64812;-75
2024/02/14 06:39:41;;;;;;;143.40;105.40;;;;;;;-0.69;100.00;99596.89;109062;1252;59074;-76
2024/02/14 06:42:08;;;;;;;135.80;101.30;;;;;;;-0.64;100.00;99598.23;109374;1252;59136;-75
2024/02/14 06:44:34;;;;;;;137.20;100.30;;;;;;;-0.58;100.00;99602.52;109412;1252;67182;-75
2024/02/14 06:47:01;;;;;;;153.70;109.70;;;;;;;-0.52;100.00;99610.81;109360;1253;60153;-74
2024/02/14 06:49:28;;;;;;;138.80;104.50;;;;;;;-0.45;100.00;99611.08;109362;1252;65108;-75
2024/02/14 06:51:54;;;;;;;138.00;103.10;;;;;;;-0.39;100.00;99606.82;109330;1252;59072;-75
2024/02/14 06:54:21;;;;;;;137.50;102.90;;;;;;;-0.34;100.00;99606.40;109147;1252;59027;-78
2024/02/14 06:56:48;;;;;;;134.40;101.90;;;;;;;-0.31;100.00;99609.34;109055;1252;64672;-75
2024/02/14 06:59:15;;;;;;;129.80;100.10;;;;;;;-0.28;100.00;99607.90;109397;1252;61239;-74
2024/02/14 07:01:41;;;;;;;122.00;93.60;;;;;;;-0.23;100.00;99611.15;109397;1252;65376;-74
2024/02/14 07:04:08;;;;;;;141.00;103.20;;;;;;;-0.20;100.00;99612.51;109351;1252;59091;-74
2024/02/14 07:06:35;;;;;;;132.80;97.00;;;;;;;-0.15;100.00;99614.19;109398;1252;59051;-74
2024/02/14 07:09:02;;;;;;;136.90;100.90;;;;;;;-0.09;100.00;99613.39;109131;1252;67415;-75
2024/02/14 07:11:28;;;;;;;150.50;103.10;;;;;;;-0.01;100.00;99613.11;109413;1252;61075;-75
2024/02/14 07:13:55;;;;;;;156.80;105.50;;;;;;;0.06;100.00;99614.08;109353;1252;65056;-75
2024/02/14 07:16:22;;;;;;;147.80;101.90;;;;;;;0.13;100.00;99613.62;109256;1252;59958;-72
2024/02/14 07:18:49;;;;;;;148.50;102.00;;;;;;;0.19;100.00;99611.96;109267;1252;58938;-72
2024/02/14 07:21:16;;;;;;;157.20;105.80;;;;;;;0.25;100.00;99613.80;109109;1252;66040;-72
2024/02/14 07:23:43;;;;;;;157.10;109.50;;;;;;;0.30;100.00;99617.56;109360;1252;61125;-72
2024/02/14 07:26:10;;;;;;;180.90;114.50;;;;;;;0.35;100.00;99615.92;109374;1252;65109;-72
2024/02/14 07:28:36;;;;;;;163.50;111.30;;;;;;;0.41;100.00;99612.66;109386;1252;58969;-73
2024/02/14 07:31:03;;;;;;;167.80;108.70;;;;;;;0.49;100.00;99610.63;109409;1252;61251;-72
2024/02/14 07:33:30;;;;;;;166.40;112.10;;;;;;;0.55;100.00;99605.79;109123;1252;67098;-72
2024/02/14 07:35:57;;;;;;;160.70;111.50;;;;;;;0.63;100.00;99601.11;109399;1252;60983;-72
2024/02/14 07:38:24;;;;;;;164.50;109.20;;;;;;;0.69;100.00;99602.95;109403;1252;64180;-73
2024/02/14 07:40:50;;;;;;;160.60;106.40;;;;;;;0.77;100.00;99604.73;109364;1252;59223;-75
2024/02/14 07:43:17;;;;;;;155.40;107.40;;;;;;;0.86;100.00;99599.33;109405;1252;59323;-73
2024/02/14 07:45:44;;;;;;;149.40;104.20;;;;;;;0.97;100.00;99602.28;109387;1252;65957;-72
2024/02/14 07:48:10;;;;;;;152.80;106.00;;;;;;;1.07;100.00;99601.23;109419;1252;60700;-73
2024/02/14 07:50:37;;;;;;;142.20;99.80;;;;;;;1.18;100.00;99602.23;109395;1252;65057;-72
2024/02/14 07:53:04;;;;;;;141.80;100.00;;;;;;;1.30;100.00;99603.76;109422;1252;58970;-72
2024/02/14 07:55:31;;;;;;;133.60;97.10;;;;;;;1.42;100.00;99600.55;109408;1252;58968;-72
2024/02/14 07:57:59;;;;;;;128.30;92.00;;;;;;;1.52;100.00;99596.65;109400;1252;65965;-72
2024/02/14 08:00:26;;;;;;;116.60;88.00;;;;;;;1.63;100.00;99598.17;109387;1252;60979;-72
2024/02/14 08:02:52;;;;;;;101.90;76.50;;;;;;;1.74;100.00;99599.89;109401;1252;63954;-72
2024/02/14 08:05:21;;;;;;;95.60;71.20;;;;;;;1.85;100.00;99599.45;109381;1252;59495;-72
2024/02/14 08:07:48;;;;;;;97.80;72.90;;;;;;;1.95;100.00;99597.48;109417;1252;58894;-71
2024/02/14 08:10:14;;;;;;;91.00;65.60;;;;;;;2.06;100.00;99593.57;109399;1252;67184;-71
2024/02/14 08:12:41;;;;;;;83.40;62.60;;;;;;;2.16;100.00;99594.02;109372;1252;61421;-73
2024/02/14 08:15:08;;;;;;;82.60;62.40;;;;;;;2.26;100.00;99602.56;109383;1252;65074;-71
2024/02/14 08:17:35;;;;;;;76.70;57.10;;;;;;;2.35;100.00;99606.73;109354;1252;59351;-72
2024/02/14 08:20:03;;;;;;;76.40;55.90;;;;;;;2.45;100.00;99602.31;109387;1252;58903;-72
2024/02/14 08:22:30;;;;;;;72.30;50.80;;;;;;;2.54;100.00;99600.67;109375;1252;67064;-72
2024/02/14 08:24:58;;;;;;;64.80;46.90;;;;;;;2.64;100.00;99601.84;109381;1252;61171;-72
2024/02/14 08:27:26;;;;;;;68.60;46.60;;;;;;;2.73;100.00;99600.20;109429;1252;65158;-71
2024/02/14 08:29:52;;;;;;;73.40;47.20;;;;;;;2.83;100.00;99598.37;109401;1252;59065;-73
2024/02/14 08:32:19;;;;;;;68.30;45.10;;;;;;;2.93;100.00;99600.21;109396;1252;59125;-72
2024/02/14 08:34:46;;;;;;;62.10;40.40;;;;;;;3.02;100.00;99598.73;109397;1252;65971;-71
2024/02/14 08:37:13;;;;;;;59.30;41.00;;;;;;;3.11;100.00;99595.88;109432;1252;61090;-72
2024/02/14 08:39:40;;;;;;;62.50;41.00;;;;;;;3.21;100.00;99596.49;109376;1252;64166;-72
2024/02/14 08:42:07;;;;;;;56.70;38.90;;;;;;;3.30;100.00;99593.78;109374;1252;58960;-73
2024/02/14 08:44:35;;;;;;;50.30;31.80;;;;;;;3.40;100.00;99596.52;109403;1252;59045;-72
2024/02/14 08:47:02;;;;;;;51.00;31.70;;;;;;;3.49;100.00;99594.66;109405;1252;67073;-72
2024/02/14 08:49:28;;;;;;;48.90;29.70;;;;;;;3.60;100.00;99593.27;109405;1252;60067;-72
2024/02/14 08:51:55;;;;;;;55.20;30.30;;;;;;;3.68;100.00;99594.62;109376;1252;65388;-72
2024/02/14 08:54:23;;;;;;;47.50;29.90;;;;;;;3.75;100.00;99596.35;109149;1252;59001;-75
2024/02/14 08:56:49;;;;;;;54.80;33.90;;;;;;;3.84;100.00;99595.38;109448;1252;58904;-73
2024/02/14 08:59:16;;;;;;;50.20;34.00;;;;;;;3.92;100.00;99594.45;109386;1252;65999;-72
2024/02/14 09:01:43;;;;;;;48.80;33.20;;;;;;;3.99;100.00;99594.41;109428;1252;60085;-75
2024/02/14 09:04:09;;;;;;;45.00;32.20;;;;;;;4.07;100.00;99594.88;109401;1252;64171;-73
2024/02/14 09:06:37;;;;;;;44.90;30.30;;;;;;;4.16;100.00;99594.93;109353;1252;59044;-72
2024/02/14 09:09:03;;;;;;;38.00;28.40;;;;;;;4.26;100.00;99593.59;109396;1252;59001;-73
2024/02/14 09:11:31;;;;;;;36.30;27.60;;;;;;;4.33;100.00;99590.16;109392;1253;67103;-72
2024/02/14 09:14:04;;;;;;;37.80;26.40;;;;;;;4.42;100.00;99589.90;109353;1252;60771;-87
2024/02/14 09:16:31;;;;;;;36.70;26.60;;;;;;;4.52;100.00;99588.17;109296;1252;62777;-73
2024/02/14 09:18:58;;;;;;;29.80;22.00;;;;;;;4.62;100.00;99585.58;109375;1252;59448;-73
2024/02/14 09:21:24;;;;;;;34.80;22.10;;;;;;;4.72;100.00;99581.70;109380;1252;59064;-72
2024/02/14 09:23:51;;;;;;;27.40;20.10;;;;;;;4.83;100.00;99578.50;109412;1252;67269;-72
2024/02/14 09:26:18;;;;;;;26.40;19.10;;;;;;;4.94;100.00;99571.80;109125;1252;61015;-73
2024/02/14 09:28:45;;;;;;;27.70;19.50;;;;;;;5.04;100.00;99568.82;109431;1252;64988;-72
2024/02/14 09:31:12;;;;;;;27.70;17.80;;;;;;;5.13;100.00;99571.63;109195;1252;59008;-72
2024/02/14 09:33:39;;;;;;;26.10;18.10;;;;;;;5.25;100.00;99573.70;109437;1252;59014;-72
2024/02/14 09:36:07;;;;;;;22.10;16.30;;;;;;;5.35;100.00;99576.34;109390;1252;67050;-72
2024/02/14 09:38:34;;;;;;;20.60;15.80;;;;;;;5.42;100.00;99582.43;109413;1252;59762;-73
2024/02/14 09:41:36;;;;;;;22.70;16.80;;;;;;;5.51;100.00;99584.73;109402;1252;64279;-71
2024/02/14 09:44:03;;;;;;;20.90;15.90;;;;;;;5.64;100.00;99583.01;108889;1258;59252;-72
2024/02/14 09:46:30;;;;;;;20.00;14.20;;;;;;;5.78;100.00;99585.33;108816;1258;59066;-73
2024/02/14 09:48:59;;;;;;;19.10;12.90;;;;;;;5.90;100.00;99588.05;108901;1261;66578;-70
2024/02/14 09:51:26;;;;;;;18.30;13.10;;;;;;;6.02;100.00;99586.89;108897;1258;61303;-72
2024/02/14 09:53:54;;;;;;;16.20;13.60;;;;;;;6.12;100.00;99582.81;108857;1258;65124;-72
2024/02/14 09:56:24;;;;;;;20.40;13.70;;;;;;;6.20;100.00;99581.61;108899;1258;58984;-73
2024/02/14 09:58:56;;;;;;;19.20;14.20;;;;;;;6.25;100.00;99579.11;108948;1258;59110;-74
2024/02/14 10:01:24;;;;;;;19.50;14.20;;;;;;;6.27;100.00;99578.15;108934;1258;66702;-73
2024/02/14 10:03:51;;;;;;;14.10;11.20;;;;;;;6.27;100.00;99575.88;108877;1259;60189;-74
2024/02/14 10:06:20;;;;;;;18.10;11.60;;;;;;;6.28;100.00;99577.76;108850;1258;64748;-83
2024/02/14 10:08:50;;;;;;;18.80;12.30;;;;;;;6.35;100.00;99572.88;108711;1263;59079;-72
2024/02/14 10:11:21;;;;;;;20.10;12.00;;;;;;;6.44;100.00;99573.77;108699;1263;59083;-72
2024/02/14 10:13:50;;;;;;;18.90;12.90;;;;;;;6.53;100.00;99575.15;108694;1263;67066;-71
2024/02/14 10:16:18;;;;;;;19.00;13.50;;;;;;;6.61;100.00;99575.52;108680;1264;60260;-71
2024/02/14 10:18:46;;;;;;;20.70;15.50;;;;;;;6.74;100.00;99571.45;108668;1263;63991;-71
2024/02/14 10:21:19;;;;;;;22.70;14.50;;;;;;;6.87;100.00;99570.55;108905;1255;59323;-72
2024/02/14 10:23:52;;;;;;;18.00;11.70;;;;;;;7.02;100.00;99572.93;109109;1255;59004;-72
2024/02/14 10:26:19;;;;;;;16.90;12.00;;;;;;;7.13;100.00;99574.75;109097;1255;66054;-73
2024/02/14 10:28:45;;;;;;;15.20;11.30;;;;;;;7.24;100.00;99571.09;109014;1256;59109;-72
2024/02/14 10:31:12;;;;;;;16.10;12.30;;;;;;;7.36;100.00;99571.25;109080;1255;64188;-72
2024/02/14 10:33:39;;;;;;;16.10;12.40;;;;;;;7.51;100.00;99568.10;109074;1255;59155;-73
2024/02/14 10:36:08;;;;;;;15.50;11.10;;;;;;;7.69;100.00;99569.21;109097;1255;59002;-72
2024/02/14 10:38:35;;;;;;;15.20;9.60;;;;;;;7.87;100.00;99569.61;109011;1255;67081;-73
2024/02/14 10:41:02;;;;;;;11.70;8.30;;;;;;;8.03;100.00;99568.20;109372;1252;60966;-72
2024/02/14 10:43:29;;;;;;;12.10;9.30;;;;;;;8.15;100.00;99564.96;109420;1252;65181;-71
2024/02/14 10:45:58;;;;;;;12.30;8.80;;;;;;;8.24;100.00;99562.77;109432;1252;58979;-73
2024/02/14 10:48:28;;;;;;;10.80;8.30;;;;;;;8.29;100.00;99560.75;109427;1252;58893;-72
2024/02/14 10:50:57;;;;;;;11.60;9.10;;;;;;;8.35;100.00;99558.66;109427;1252;66110;-73
2024/02/14 10:53:28;;;;;;;11.70;9.50;;;;;;;8.41;100.00;99556.83;109441;1252;59162;-72
2024/02/14 10:55:58;;;;;;;12.90;9.70;;;;;;;8.48;100.00;99557.00;109402;1252;65062;-72
2024/02/14 10:58:29;;;;;;;12.30;8.40;;;;;;;8.52;100.00;99553.25;109436;1252;59204;-72
2024/02/14 11:00:57;;;;;;;10.10;7.60;;;;;;;8.57;100.00;99555.48;109458;1252;58992;-73